Time;durP1;ratioP1;P1;durP2;ratioP2;P2;SDS_P1;SDS_P2;PMS_P1;PMS_P2;Temp;Humidity;BMP_temperature;BMP_pressure;BME280_temperature;BME280_humidity;BME280_pressure;Samples;Min_cycle;Max_cycle;Signal;HPM_P1;HPM_P2
2022/10/28 00:01:27;;;;;;;5.45;2.95;;;17.70;99.90;;;17.95;100.00;101353.59;5165188;28;20070;-73
2022/10/28 00:04:01;;;;;;;5.60;2.88;;;17.70;99.90;;;17.98;100.00;101353.63;5165531;28;20051;-73
2022/10/28 00:06:36;;;;;;;6.45;2.97;;;17.70;99.90;;;17.99;100.00;101347.47;5180565;28;20100;-73
2022/10/28 00:09:08;;;;;;;5.32;2.53;;;17.70;99.90;;;18.03;100.00;101340.50;5165112;28;20053;-73
2022/10/28 00:11:41;;;;;;;10.23;3.08;;;17.80;99.90;;;18.06;100.00;101337.88;5164596;28;20050;-73
2022/10/28 00:14:13;;;;;;;9.60;2.85;;;17.80;99.90;;;18.06;100.00;101337.88;5180666;28;20079;-73
2022/10/28 00:16:46;;;;;;;7.15;2.78;;;17.80;99.90;;;18.06;100.00;101330.91;5165497;28;20077;-73
2022/10/28 00:19:18;;;;;;;5.35;2.60;;;17.80;99.90;;;18.11;100.00;101337.09;5180879;28;20042;-72
2022/10/28 00:21:51;;;;;;;7.28;2.80;;;17.90;99.90;;;18.14;100.00;101333.63;5164613;28;20050;-73
2022/10/28 00:24:30;;;;;;;3.90;2.20;;;17.80;99.90;;;18.17;100.00;101334.53;5169599;28;20045;-73
2022/10/28 00:27:02;;;;;;;4.65;2.13;;;17.90;99.90;;;18.20;100.00;101330.19;5164535;28;20495;-73
2022/10/28 00:29:35;;;;;;;4.35;2.40;;;17.90;99.90;;;18.21;100.00;101329.31;5165227;28;20046;-73
2022/10/28 00:32:07;;;;;;;5.72;2.28;;;17.90;99.90;;;18.24;100.00;101329.31;5179639;28;20490;-73
2022/10/28 00:34:39;;;;;;;8.05;2.47;;;17.90;99.90;;;18.23;100.00;101331.09;5165186;28;20042;-73
2022/10/28 00:37:12;;;;;;;7.20;2.70;;;17.90;99.90;;;18.20;100.00;101316.97;5163985;28;20046;-73
2022/10/28 00:39:44;;;;;;;5.38;2.42;;;17.90;99.90;;;18.17;100.00;101308.13;5163774;28;20042;-72
2022/10/28 00:42:21;;;;;;;3.63;2.20;;;17.90;99.90;;;18.18;100.00;101315.19;5164677;28;20046;-73
2022/10/28 00:44:57;;;;;;;3.58;2.00;;;17.90;99.90;;;18.20;100.00;101319.63;5165049;28;20161;-73
2022/10/28 00:47:50;;;;;;;3.35;1.90;;;17.90;99.90;;;18.21;100.00;101321.38;5164874;28;20046;-73
2022/10/28 00:50:43;;;;;;;3.35;1.98;;;17.90;99.90;;;18.18;100.00;101316.94;5179521;28;20499;-73
2022/10/28 00:53:21;;;;;;;3.35;2.10;;;17.80;99.90;;;18.14;100.00;101313.41;5164791;28;20121;-73
2022/10/28 00:55:55;;;;;;;2.95;1.90;;;17.80;99.90;;;18.11;100.00;101318.63;5168955;28;20507;-73
2022/10/28 00:58:41;;;;;;;4.20;1.63;;;17.80;99.90;;;18.11;100.00;101317.72;5263751;28;20421;-72
2022/10/28 01:01:13;;;;;;;1.85;1.58;;;17.80;99.90;;;18.08;100.00;101346.72;5242512;28;20512;-73
2022/10/28 01:03:45;;;;;;;2.88;1.75;;;17.80;99.90;;;18.05;100.00;101355.47;5242895;28;20036;-73
2022/10/28 01:06:17;;;;;;;3.35;1.77;;;17.70;99.90;;;18.05;100.00;101344.91;5242898;28;20040;-73
2022/10/28 01:08:49;;;;;;;2.92;1.67;;;17.70;99.90;;;18.02;100.00;101344.91;5240829;28;20053;-73
2022/10/28 01:11:53;;;;;;;3.45;1.85;;;17.70;99.90;;;17.98;100.00;101343.06;5239950;28;20108;-72
2022/10/28 01:14:50;;;;;;;4.53;2.28;;;17.70;99.90;;;17.94;100.00;101340.41;5242636;28;20051;-73
2022/10/28 01:17:34;;;;;;;4.53;2.10;;;17.60;99.90;;;17.90;100.00;101339.47;5242854;28;20051;-73
2022/10/28 01:21:24;;;;;;;5.68;2.92;;;17.60;99.90;;;17.88;100.00;101341.19;5240833;28;20359;-73
2022/10/28 01:24:15;;;;;;;5.40;2.28;;;17.60;99.90;;;17.87;100.00;101328.88;5142906;28;20054;-73
2022/10/28 01:27:34;;;;;;;5.75;2.50;;;17.60;99.90;;;17.86;100.00;101319.16;5242405;28;20040;-73
2022/10/28 01:30:12;;;;;;;3.97;2.15;;;17.60;99.90;;;17.85;100.00;101317.41;5177985;28;20046;-73
2022/10/28 01:32:52;;;;;;;4.25;1.77;;;17.60;99.90;;;17.86;100.00;101319.16;5239859;28;20593;-73
2022/10/28 01:35:34;;;;;;;3.83;1.92;;;17.50;99.90;;;17.85;100.00;101320.03;5242331;28;20044;-73
2022/10/28 01:38:22;;;;;;;5.18;2.45;;;17.60;99.90;;;17.86;100.00;101319.16;5242260;28;20041;-73
2022/10/28 01:41:11;;;;;;;5.95;2.28;;;17.60;99.90;;;17.84;100.00;101315.63;5241681;28;20131;-72
2022/10/28 01:43:52;;;;;;;4.88;2.45;;;17.50;99.90;;;17.84;100.00;101308.59;5240840;28;20036;-73
2022/10/28 01:46:30;;;;;;;4.22;2.03;;;17.50;99.90;;;17.83;100.00;101305.97;5241857;28;20045;-73
2022/10/28 01:49:10;;;;;;;3.15;1.80;;;17.50;99.90;;;17.83;100.00;101316.50;5242048;28;20127;-73
2022/10/28 01:51:47;;;;;;;3.58;1.55;;;17.50;99.90;;;17.81;100.00;101310.34;5241122;28;20040;-73
2022/10/28 01:54:24;;;;;;;3.65;1.98;;;17.50;99.90;;;17.78;100.00;101302.38;5241811;28;20042;-73
2022/10/28 01:56:58;;;;;;;2.50;1.67;;;17.50;99.90;;;17.74;100.00;101300.56;5240371;28;20041;-73
2022/10/28 01:59:31;;;;;;;3.08;1.67;;;17.40;99.90;;;17.71;100.00;101297.84;5240420;28;20049;-73
2022/10/28 02:02:04;;;;;;;2.78;1.63;;;17.40;99.90;;;17.68;100.00;101290.78;5241012;28;20052;-73
2022/10/28 02:04:37;;;;;;;5.55;2.13;;;17.40;99.90;;;17.66;100.00;101291.63;5241591;28;20119;-73
2022/10/28 02:07:09;;;;;;;3.97;1.90;;;17.30;99.90;;;17.63;100.00;101289.84;5241373;28;20028;-73
2022/10/28 02:09:56;;;;;;;3.38;1.50;;;17.30;99.90;;;17.60;100.00;101301.25;5229010;28;20056;-73
2022/10/28 02:12:31;;;;;;;2.13;1.60;;;17.30;99.90;;;17.57;100.00;101303.81;5227813;28;20076;-73
2022/10/28 02:15:29;;;;;;;2.90;1.88;;;17.20;99.90;;;17.52;100.00;101294.94;5227745;28;20037;-72
2022/10/28 02:18:15;;;;;;;3.00;1.80;;;17.20;99.90;;;17.50;100.00;101291.41;5226691;28;20045;-73
2022/10/28 02:20:53;;;;;;;2.60;1.83;;;17.20;99.90;;;17.46;100.00;101292.22;5225979;28;20145;-71
2022/10/28 02:23:41;;;;;;;3.92;1.67;;;17.10;99.90;;;17.42;100.00;101285.16;5227470;28;20509;-71
2022/10/28 02:26:21;;;;;;;2.88;1.60;;;17.10;99.90;;;17.41;100.00;101280.75;5227740;28;20608;-71
2022/10/28 02:29:02;;;;;;;2.70;1.60;;;17.10;99.90;;;17.38;100.00;101301.78;5227664;28;20060;-71
2022/10/28 02:31:39;;;;;;;2.03;1.35;;;17.10;99.90;;;17.37;100.00;101307.91;5227057;28;20497;-71
2022/10/28 02:34:17;;;;;;;2.78;1.83;;;17.10;99.90;;;17.34;100.00;101302.56;5226277;28;20059;-71
2022/10/28 02:36:54;;;;;;;3.60;1.90;;;17.10;99.90;;;17.33;100.00;101312.22;5227367;28;20071;-71
2022/10/28 02:39:34;;;;;;;4.03;1.70;;;17.00;99.90;;;17.33;100.00;101311.34;5226381;28;20060;-71
2022/10/28 02:42:10;;;;;;;3.15;2.00;;;17.00;99.90;;;17.30;100.00;101311.31;5226935;28;20044;-71
2022/10/28 02:44:48;;;;;;;2.88;1.80;;;17.00;99.90;;;17.25;100.00;101310.34;5227345;28;20049;-71
2022/10/28 02:47:27;;;;;;;2.88;1.80;;;16.90;99.90;;;17.22;100.00;101295.41;5227256;28;20045;-71
2022/10/28 02:50:04;;;;;;;2.95;2.00;;;16.90;99.90;;;17.19;100.00;101302.34;5225484;28;20076;-71
2022/10/28 02:52:40;;;;;;;4.30;2.40;;;16.90;99.90;;;17.18;100.00;101308.47;5226870;28;20439;-71
2022/10/28 02:55:12;;;;;;;5.15;2.45;;;16.90;99.90;;;17.16;100.00;101299.69;5227330;28;20052;-71
2022/10/28 02:57:47;;;;;;;4.40;2.55;;;16.90;99.90;;;17.16;100.00;101302.31;5227056;28;20052;-71
2022/10/28 03:00:23;;;;;;;5.03;2.28;;;16.90;99.90;;;17.16;100.00;101299.69;5226579;28;20052;-71
2022/10/28 03:02:55;;;;;;;7.95;2.90;;;16.90;99.90;;;17.13;100.00;101289.06;5226906;28;20582;-71
2022/10/28 03:05:27;;;;;;;7.80;2.88;;;16.90;99.90;;;17.11;100.00;101285.53;5225960;28;20041;-71
2022/10/28 03:08:00;;;;;;;7.13;2.85;;;16.80;99.90;;;17.12;100.00;101282.03;5226804;28;20047;-71
2022/10/28 03:10:33;;;;;;;7.13;2.90;;;16.90;99.90;;;17.13;100.00;101281.19;5226330;28;20044;-71
2022/10/28 03:13:05;;;;;;;7.15;2.88;;;16.90;99.90;;;17.12;100.00;101271.50;5226727;28;20053;-71
2022/10/28 03:15:37;;;;;;;5.35;2.65;;;16.90;99.90;;;17.17;100.00;101264.56;5226602;28;20123;-71
2022/10/28 03:18:09;;;;;;;6.63;3.15;;;16.90;99.90;;;17.24;100.00;101263.78;5226662;28;20044;-71
2022/10/28 03:20:41;;;;;;;7.60;3.03;;;17.00;99.90;;;17.25;100.00;101265.56;5223753;28;20049;-71
2022/10/28 03:23:14;;;;;;;4.47;2.58;;;17.00;99.90;;;17.32;100.00;101260.41;5226537;28;20127;-71
2022/10/28 03:25:46;;;;;;;13.13;5.45;;;17.10;99.90;;;17.35;100.00;101257.81;5226468;28;20056;-71
2022/10/28 03:28:18;;;;;;;7.80;4.10;;;17.10;99.90;;;17.43;100.00;101251.78;5226281;28;20051;-71
2022/10/28 03:30:50;;;;;;;12.88;5.40;;;17.20;99.90;;;17.48;100.00;101256.25;5226009;28;20053;-71
2022/10/28 03:33:22;;;;;;;9.88;4.15;;;17.20;99.90;;;17.50;100.00;101243.97;5226240;28;20048;-71
2022/10/28 03:35:54;;;;;;;8.05;3.90;;;17.20;99.90;;;17.55;100.00;101255.47;5226373;28;20041;-71
2022/10/28 03:38:28;;;;;;;8.48;3.20;;;17.30;99.90;;;17.58;100.00;101252.84;5226160;28;20041;-72
2022/10/28 03:41:00;;;;;;;5.68;3.33;;;17.30;99.90;;;17.61;100.00;101247.66;5225705;28;20049;-71
2022/10/28 03:43:32;;;;;;;6.15;2.83;;;17.30;99.90;;;17.63;100.00;101251.19;5226034;28;20037;-71
2022/10/28 03:46:04;;;;;;;6.50;2.53;;;17.40;99.90;;;17.64;100.00;101255.56;5226224;28;20072;-71
2022/10/28 03:48:36;;;;;;;7.15;2.55;;;17.40;99.90;;;17.63;100.00;101252.94;5226103;28;20493;-72
2022/10/28 03:51:09;;;;;;;4.57;2.55;;;17.30;99.90;;;17.60;100.00;101255.50;5224084;28;20520;-72
2022/10/28 03:53:42;;;;;;;4.43;2.30;;;17.30;99.90;;;17.55;100.00;101247.56;5224628;28;20126;-72
2022/10/28 03:56:14;;;;;;;4.00;2.08;;;17.30;99.90;;;17.49;100.00;101251.88;5224590;28;20049;-72
2022/10/28 03:58:47;;;;;;;3.03;1.90;;;17.20;99.90;;;17.43;100.00;101251.78;5224575;28;20045;-72
2022/10/28 04:01:19;;;;;;;3.45;1.80;;;17.10;99.90;;;17.34;100.00;101250.78;5223856;28;20049;-72
2022/10/28 04:03:51;;;;;;;3.35;1.80;;;17.10;99.90;;;17.29;100.00;101259.50;5225731;28;20036;-71
2022/10/28 04:06:23;;;;;;;3.75;2.00;;;17.00;99.90;;;17.20;100.00;101252.31;5225685;28;20048;-71
2022/10/28 04:08:57;;;;;;;2.92;1.80;;;16.90;99.90;;;17.13;100.00;101249.56;5225621;28;20048;-71
2022/10/28 04:11:29;;;;;;;3.25;1.73;;;16.80;99.90;;;17.07;100.00;101258.25;5223919;28;20075;-71
2022/10/28 04:14:01;;;;;;;2.58;1.70;;;16.80;99.90;;;16.98;100.00;101259.00;5225481;28;20041;-72
2022/10/28 04:16:33;;;;;;;2.53;1.60;;;16.70;99.90;;;16.90;100.00;101255.38;5225916;28;20493;-71
2022/10/28 04:19:05;;;;;;;3.35;1.73;;;16.60;99.90;;;16.85;100.00;101240.34;5225455;28;20045;-72
2022/10/28 04:21:37;;;;;;;3.10;1.85;;;16.50;99.90;;;16.78;100.00;101234.09;5224965;28;20044;-71
2022/10/28 04:24:11;;;;;;;4.53;2.03;;;16.50;99.90;;;16.72;100.00;101234.88;5225448;28;20040;-72
2022/10/28 04:26:43;;;;;;;5.50;2.70;;;16.50;99.90;;;16.67;100.00;101233.00;5225434;28;20049;-72
2022/10/28 04:29:15;;;;;;;6.45;2.88;;;16.40;99.90;;;16.64;100.00;101235.59;5225400;28;20049;-71
2022/10/28 04:31:47;;;;;;;5.88;2.70;;;16.40;99.90;;;16.57;100.00;101249.50;5224627;28;20064;-71
2022/10/28 04:34:19;;;;;;;5.43;2.90;;;16.30;99.90;;;16.51;100.00;101253.78;5225361;28;20064;-71
2022/10/28 04:36:51;;;;;;;7.43;3.33;;;16.20;99.90;;;16.45;100.00;101256.31;5225456;28;20661;-71
2022/10/28 04:39:24;;;;;;;5.43;3.10;;;16.20;99.90;;;16.38;100.00;101254.44;5278547;23;20096;-75
2022/10/28 04:41:57;;;;;;;6.85;3.00;;;16.10;99.90;;;16.32;100.00;101258.69;5200360;28;20064;-75
2022/10/28 04:44:30;;;;;;;7.53;3.15;;;16.10;99.90;;;16.28;100.00;101253.34;5203473;28;20107;-74
2022/10/28 04:47:03;;;;;;;4.88;2.65;;;16.00;99.90;;;16.27;100.00;101258.59;5203163;28;20041;-74
2022/10/28 04:49:35;;;;;;;4.90;2.83;;;16.00;99.90;;;16.25;100.00;101258.59;5202998;28;20045;-75
2022/10/28 04:52:07;;;;;;;6.80;3.10;;;16.00;99.90;;;16.23;100.00;101256.75;5203421;28;20042;-75
2022/10/28 04:54:41;;;;;;;4.38;2.33;;;16.00;99.90;;;16.21;100.00;101261.13;5203177;28;20056;-75
2022/10/28 04:57:13;;;;;;;5.45;2.22;;;15.90;99.90;;;16.19;100.00;101266.34;5202006;28;20041;-75
2022/10/28 04:59:45;;;;;;;4.68;2.40;;;15.90;99.90;;;16.16;100.00;101268.03;5201330;28;20049;-75
2022/10/28 05:02:17;;;;;;;5.85;2.97;;;15.90;99.90;;;16.13;100.00;101273.22;5203506;28;20045;-75
2022/10/28 05:04:50;;;;;;;4.95;2.80;;;15.90;99.90;;;16.12;100.00;101271.47;5202253;28;20512;-75
2022/10/28 05:07:23;;;;;;;5.82;2.42;;;15.80;99.90;;;16.12;100.00;101268.84;5203653;28;20057;-74
2022/10/28 05:09:58;;;;;;;4.00;2.50;;;15.90;99.90;;;16.09;100.00;101266.13;5203167;28;20426;-75
2022/10/28 05:12:30;;;;;;;7.13;2.63;;;15.80;99.90;;;16.05;100.00;101254.69;5203468;28;20041;-75
2022/10/28 05:15:04;;;;;;;4.60;2.30;;;15.80;99.90;;;16.05;100.00;101269.56;5203367;28;20041;-75
2022/10/28 05:17:39;;;;;;;4.70;2.58;;;15.80;99.90;;;16.05;100.00;101264.31;5203554;28;20045;-75
2022/10/28 05:20:13;;;;;;;5.47;2.92;;;15.80;99.90;;;16.07;100.00;101267.84;5202883;28;20537;-75
2022/10/28 05:22:47;;;;;;;6.25;2.65;;;15.80;99.90;;;16.08;100.00;101265.25;5202013;28;20050;-75
2022/10/28 05:25:22;;;;;;;8.20;2.95;;;15.80;99.90;;;16.10;100.00;101262.63;5201876;28;20080;-75
2022/10/28 05:27:58;;;;;;;6.47;2.85;;;15.80;99.90;;;16.12;100.00;101251.31;5203325;28;20048;-75
2022/10/28 05:30:30;;;;;;;7.30;3.45;;;15.90;99.90;;;16.18;100.00;101245.28;5202921;28;20123;-75
2022/10/28 05:33:03;;;;;;;6.93;2.63;;;16.00;99.90;;;16.23;100.00;101254.13;5203524;28;20057;-72
2022/10/28 05:35:36;;;;;;;5.50;2.63;;;16.00;99.90;;;16.29;100.00;101251.63;5203660;28;20405;-73
2022/10/28 05:38:08;;;;;;;6.93;2.97;;;16.00;99.90;;;16.31;100.00;101252.56;5203874;28;20518;-72
2022/10/28 05:40:42;;;;;;;6.25;2.63;;;16.10;99.90;;;16.35;100.00;101254.34;5203130;28;20072;-72
2022/10/28 05:43:14;;;;;;;5.30;2.97;;;16.10;99.90;;;16.38;100.00;101249.16;5204212;28;20091;-72
2022/10/28 05:45:52;;;;;;;4.93;2.60;;;16.10;99.90;;;16.41;100.00;101259.75;5207342;28;20041;-73
2022/10/28 05:48:25;;;;;;;7.00;2.67;;;16.10;99.90;;;16.42;100.00;101256.25;5207450;28;20099;-71
2022/10/28 05:50:57;;;;;;;4.70;2.20;;;16.20;99.90;;;16.45;100.00;101261.59;5227477;28;20041;-72
2022/10/28 05:53:29;;;;;;;5.00;2.28;;;16.20;99.90;;;16.47;100.00;101251.06;5228147;28;20049;-72
2022/10/28 05:56:02;;;;;;;5.15;2.55;;;16.20;99.90;;;16.49;100.00;101247.59;5227883;28;20053;-72
2022/10/28 05:58:34;;;;;;;9.07;2.90;;;16.30;99.90;;;16.48;100.00;101256.34;5228013;28;20103;-72
2022/10/28 06:01:07;;;;;;;7.60;2.90;;;16.30;99.90;;;16.52;100.00;101250.31;5227540;28;20049;-72
2022/10/28 06:03:39;;;;;;;6.45;2.72;;;16.30;99.90;;;16.57;100.00;101260.03;5226448;28;20072;-57
2022/10/28 06:06:11;;;;;;;5.70;2.67;;;16.30;99.90;;;16.60;100.00;101265.34;5227186;28;20102;-58
2022/10/28 06:08:43;;;;;;;6.07;2.38;;;16.40;99.90;;;16.65;100.00;101263.69;5227211;28;20041;-58
2022/10/28 06:11:16;;;;;;;7.50;2.55;;;16.40;99.90;;;16.67;100.00;101249.66;5226952;28;20254;-59
2022/10/28 06:13:49;;;;;;;6.30;2.45;;;16.50;99.90;;;16.71;100.00;101248.91;5227100;28;20045;-58
2022/10/28 06:16:21;;;;;;;6.43;2.33;;;16.50;99.90;;;16.73;100.00;101257.72;5227022;28;20520;-58
2022/10/28 06:18:53;;;;;;;7.47;2.70;;;16.50;99.90;;;16.75;100.00;101260.38;5225707;28;20056;-59
2022/10/28 06:21:25;;;;;;;6.35;2.83;;;16.50;99.90;;;16.78;100.00;101261.31;5226212;28;20044;-57
2022/10/28 06:23:57;;;;;;;5.75;2.53;;;16.60;99.90;;;16.82;100.00;101264.88;5226635;28;20049;-58
2022/10/28 06:26:30;;;;;;;5.53;2.30;;;16.60;99.90;;;16.85;100.00;101269.31;5225462;28;20416;-58
2022/10/28 06:29:02;;;;;;;5.40;2.33;;;16.60;99.90;;;16.87;100.00;101265.84;5226845;28;20037;-59
2022/10/28 06:31:34;;;;;;;4.25;2.17;;;16.60;99.90;;;16.88;100.00;101266.72;5226503;28;20048;-58
2022/10/28 06:34:06;;;;;;;4.53;2.45;;;16.60;99.90;;;16.88;100.00;101272.88;5226888;28;20335;-59
2022/10/28 06:36:39;;;;;;;5.97;2.40;;;16.60;99.90;;;16.89;100.00;101277.31;5227468;28;20049;-59
2022/10/28 06:39:11;;;;;;;5.18;2.53;;;16.60;99.90;;;16.92;100.00;101279.97;5226643;28;20095;-58
2022/10/28 06:41:45;;;;;;;4.18;2.17;;;16.70;99.90;;;16.94;100.00;101288.78;5226368;28;20049;-58
2022/10/28 06:44:17;;;;;;;7.43;2.42;;;16.70;99.90;;;16.97;100.00;101275.69;5207583;28;20048;-59
2022/10/28 06:46:49;;;;;;;5.63;2.53;;;16.70;99.90;;;16.99;100.00;101280.97;5234277;28;20136;-59
2022/10/28 06:49:21;;;;;;;6.60;2.88;;;16.70;99.90;;;17.01;100.00;101282.75;5190777;28;20411;-59
2022/10/28 06:51:53;;;;;;;4.85;2.30;;;16.80;99.90;;;17.04;100.00;101274.91;5187790;28;20057;-59
2022/10/28 06:54:25;;;;;;;6.05;2.42;;;16.80;99.90;;;17.13;100.00;101283.81;5204363;28;20060;-60
2022/10/28 06:56:58;;;;;;;4.28;2.10;;;16.80;99.90;;;17.23;100.00;101276.09;5203017;28;20041;-61
2022/10/28 06:59:31;;;;;;;7.75;2.40;;;16.90;99.90;;;17.36;100.00;101285.06;5194422;28;20405;-61
2022/10/28 07:02:03;;;;;;;4.95;2.40;;;17.00;99.90;;;17.46;100.00;101284.31;5189497;28;20056;-60
2022/10/28 07:04:35;;;;;;;7.45;2.63;;;17.20;99.90;;;17.54;100.00;101282.69;5201727;28;20092;-61
2022/10/28 07:07:07;;;;;;;8.32;2.53;;;17.30;99.90;;;17.61;100.00;101288.94;5201608;28;20037;-61
2022/10/28 07:09:41;;;;;;;5.60;2.65;;;17.40;99.90;;;17.68;100.00;101287.28;5190066;28;20038;-60
2022/10/28 07:12:15;;;;;;;7.45;2.60;;;17.40;99.90;;;17.72;100.00;101291.72;5192619;28;20049;-60
2022/10/28 07:14:47;;;;;;;5.13;2.17;;;17.50;99.90;;;17.77;100.00;101290.06;5184895;28;20441;-61
2022/10/28 07:17:19;;;;;;;3.90;2.10;;;17.50;99.90;;;17.81;100.00;101292.75;5184737;28;20138;-60
2022/10/28 07:19:51;;;;;;;4.85;2.47;;;17.60;99.90;;;17.86;100.00;101300.72;5202467;28;20045;-60
2022/10/28 07:22:23;;;;;;;5.38;2.40;;;17.60;99.90;;;17.92;100.00;101306.06;5205150;28;20053;-60
2022/10/28 07:24:55;;;;;;;5.68;2.55;;;17.70;99.90;;;17.98;100.00;101305.25;5204054;28;20041;-60
2022/10/28 07:27:28;;;;;;;8.60;3.13;;;17.70;99.90;;;18.04;100.00;101306.22;5199867;28;20110;-60
2022/10/28 07:30:01;;;;;;;9.07;2.88;;;17.80;99.90;;;18.10;100.00;101306.31;5202046;28;20041;-60
2022/10/28 07:32:33;;;;;;;6.10;2.83;;;17.80;99.90;;;18.19;100.00;101305.50;5188426;28;20042;-61
2022/10/28 07:35:06;;;;;;;8.60;2.80;;;17.90;99.90;;;18.27;100.00;101305.63;5184688;28;20053;-61
2022/10/28 07:37:38;;;;;;;11.13;3.50;;;17.90;99.90;;;18.24;100.00;101303.81;5183816;28;20054;-60
2022/10/28 07:40:11;;;;;;;8.80;2.83;;;18.00;99.90;;;18.32;100.00;101306.53;5184558;28;20070;-61
2022/10/28 07:42:44;;;;;;;6.53;2.67;;;18.00;99.90;;;18.38;100.00;101301.34;5184590;28;20050;-60
2022/10/28 07:45:18;;;;;;;6.70;3.10;;;18.10;99.90;;;18.41;100.00;101309.31;5184534;28;20050;-60
2022/10/28 07:47:50;;;;;;;5.85;2.67;;;18.10;99.90;;;18.44;100.00;101319.88;5184391;28;20119;-61
2022/10/28 07:50:22;;;;;;;7.90;2.97;;;18.10;99.90;;;18.49;100.00;101314.66;5194910;28;20042;-61
2022/10/28 07:52:54;;;;;;;6.28;2.72;;;18.20;99.90;;;18.55;100.00;101320.88;5203132;28;20052;-57
2022/10/28 07:55:26;;;;;;;7.18;2.30;;;18.20;99.90;;;18.72;100.00;101328.16;5204728;28;20050;-56
2022/10/28 07:58:00;;;;;;;8.55;2.80;;;18.40;99.90;;;18.90;100.00;101323.00;5203328;28;20748;-56
2022/10/28 08:00:32;;;;;;;7.20;3.00;;;18.60;99.90;;;19.05;100.00;101325.81;5204494;28;20409;-57
2022/10/28 08:03:04;;;;;;;7.85;2.38;;;18.70;99.90;;;19.17;100.00;101328.56;5204734;28;20056;-56
2022/10/28 08:05:36;;;;;;;8.20;2.20;;;18.90;99.90;;;19.19;100.00;101321.50;5202889;28;20042;-54
2022/10/28 08:08:08;;;;;;;4.80;2.60;;;19.00;99.90;;;19.15;100.00;101319.72;5202598;28;20045;-54
2022/10/28 08:10:40;;;;;;;8.55;2.83;;;18.90;99.90;;;19.13;100.00;101325.88;5200093;28;20092;-61
2022/10/28 08:13:13;;;;;;;8.98;2.65;;;18.90;99.90;;;19.20;100.00;101328.56;5204222;28;20033;-63
2022/10/28 08:15:52;;;;;;;5.82;2.60;;;19.00;99.90;;;19.24;100.00;101319.78;5204516;28;20072;-62
2022/10/28 08:18:24;;;;;;;8.63;2.50;;;19.00;99.90;;;19.27;100.00;101325.97;5205034;28;20053;-64
2022/10/28 08:20:59;;;;;;;7.05;2.30;;;19.00;99.90;;;19.27;100.00;101331.25;5204190;28;20049;-59
2022/10/28 08:23:32;;;;;;;6.68;2.55;;;19.00;99.90;;;19.21;100.00;101324.16;5192707;28;20517;-58
2022/10/28 08:26:05;;;;;;;8.35;2.30;;;19.00;99.90;;;19.16;100.00;101321.47;5201856;28;20049;-58
2022/10/28 08:28:38;;;;;;;6.75;2.53;;;18.90;99.90;;;19.10;100.00;101302.91;5203276;28;20049;-59
2022/10/28 08:31:12;;;;;;;4.43;2.38;;;18.80;99.90;;;19.07;100.00;101300.28;5202230;28;20124;-59
2022/10/28 08:33:45;;;;;;;5.28;2.30;;;18.80;99.90;;;19.05;100.00;101296.75;5202792;28;20281;-59
2022/10/28 08:36:17;;;;;;;5.78;2.17;;;18.80;99.90;;;19.03;100.00;101301.09;5203911;28;20073;-58
2022/10/28 08:38:49;;;;;;;6.22;3.00;;;18.70;99.90;;;19.00;100.00;101284.38;5194616;28;20108;-60
2022/10/28 08:41:35;;;;;;;5.20;2.30;;;18.70;99.90;;;19.00;100.00;101281.72;5182738;28;20042;-60
2022/10/28 08:44:45;;;;;;;5.38;2.20;;;18.70;99.90;;;19.02;100.00;101288.78;5183382;28;20509;-58
2022/10/28 08:47:34;;;;;;;5.57;2.22;;;18.70;99.90;;;19.02;100.00;101291.41;5198149;28;20064;-60
2022/10/28 08:50:13;;;;;;;4.68;2.25;;;18.70;99.90;;;19.04;100.00;101288.78;5201817;28;20140;-58
2022/10/28 08:52:51;;;;;;;3.55;1.88;;;18.70;99.90;;;19.07;100.00;101291.47;5201132;28;20052;-59
2022/10/28 08:55:29;;;;;;;5.18;2.30;;;18.70;99.90;;;19.11;100.00;101296.78;5204164;28;20501;-59
2022/10/28 08:58:08;;;;;;;4.25;2.15;;;18.80;99.90;;;19.18;100.00;101293.31;5202158;28;20044;-58
2022/10/28 09:00:47;;;;;;;3.60;1.98;;;18.80;99.90;;;19.31;100.00;101293.41;5203635;28;20045;-59
2022/10/28 09:03:23;;;;;;;5.78;2.00;;;18.90;99.90;;;19.41;100.00;101290.81;5204468;28;20108;-58
2022/10/28 09:06:02;;;;;;;4.38;1.88;;;18.90;99.90;;;19.55;100.00;101293.53;5204453;28;20053;-59
2022/10/28 09:08:39;;;;;;;3.50;1.65;;;19.00;99.90;;;19.72;100.00;101286.63;5204238;28;20053;-60
2022/10/28 09:11:43;;;;;;;6.03;2.42;;;19.20;99.90;;;19.93;100.00;101300.84;5202700;28;20145;-60
2022/10/28 09:14:36;;;;;;;5.85;2.20;;;19.40;99.90;;;20.16;100.00;101288.59;5203842;28;20141;-60
2022/10/28 09:17:19;;;;;;;6.40;2.58;;;19.60;99.90;;;20.36;100.00;101293.06;5202761;28;20045;-60
2022/10/28 09:19:53;;;;;;;7.22;2.33;;;19.80;99.90;;;20.55;100.00;101290.47;5207448;28;20120;-59
2022/10/28 09:22:33;;;;;;;4.90;2.30;;;20.00;99.90;;;20.82;100.00;101281.69;5206787;28;20502;-59
2022/10/28 09:25:18;;;;;;;6.88;2.15;;;20.20;99.90;;;21.11;100.00;101288.72;5206803;28;20041;-60
2022/10/28 09:28:06;;;;;;;4.70;2.45;;;20.40;99.90;;;21.30;100.00;101290.50;5207957;28;20073;-60
2022/10/28 09:30:51;;;;;;;4.88;2.05;;;20.60;99.90;;;21.48;100.00;101294.03;5207663;28;20046;-58
2022/10/28 09:33:49;;;;;;;9.25;2.80;;;20.80;99.90;;;21.57;100.00;101292.22;5207991;28;20041;-59
2022/10/28 09:36:29;;;;;;;7.65;2.42;;;21.00;99.90;;;21.68;100.00;101292.22;5207858;28;20050;-59
2022/10/28 09:39:03;;;;;;;6.50;2.63;;;21.10;99.90;;;21.78;100.00;101301.91;5207618;28;20049;-58
2022/10/28 09:41:38;;;;;;;9.80;3.10;;;21.20;99.90;;;21.80;100.00;101302.78;5207291;28;20057;-59
2022/10/28 09:44:18;;;;;;;8.60;3.33;;;21.20;99.90;;;21.76;100.00;101294.84;5208251;28;20053;-60
2022/10/28 09:46:55;;;;;;;7.68;2.83;;;21.20;99.90;;;21.77;100.00;101297.47;5207703;28;20124;-59
2022/10/28 09:49:34;;;;;;;7.45;2.92;;;21.30;99.90;;;21.87;100.00;101299.22;5207330;28;20498;-60
2022/10/28 09:52:16;;;;;;;6.18;2.38;;;21.30;99.90;;;22.06;100.00;101299.16;5207327;28;20133;-59
2022/10/28 09:54:52;;;;;;;8.90;3.05;;;21.40;99.90;;;22.24;100.00;101299.09;5207821;28;20135;-59
2022/10/28 09:57:31;;;;;;;8.75;2.90;;;21.60;99.90;;;22.37;100.00;101299.91;5207377;28;20391;-59
2022/10/28 10:00:04;;;;;;;6.30;2.50;;;21.70;99.90;;;22.53;100.00;101306.88;5206279;28;20057;-59
2022/10/28 10:02:41;;;;;;;7.68;2.50;;;21.90;99.90;;;22.70;100.00;101299.69;5206689;28;20506;-59
2022/10/28 10:05:18;;;;;;;7.72;2.50;;;22.00;99.90;;;22.74;99.82;101306.72;5206758;28;20053;-59
2022/10/28 10:07:53;;;;;;;7.60;2.60;;;22.10;99.90;;;22.78;99.32;101302.28;5206909;28;20120;-59
2022/10/28 10:10:30;;;;;;;6.57;2.42;;;22.20;99.90;;;22.87;99.16;101302.25;5206773;28;20053;-59
2022/10/28 10:13:04;;;;;;;10.30;3.08;;;22.20;99.90;;;22.93;96.95;101301.31;5207076;28;20120;-59
2022/10/28 10:15:38;;;;;;;;;;;22.30;99.90;;;23.03;96.43;101303.03;5207060;28;20053;-59
2022/10/28 10:18:19;;;;;;;10.07;2.75;;;22.40;99.90;;;23.14;95.23;101300.25;5206321;28;19956;-59
2022/10/28 10:20:57;;;;;;;4.85;2.33;;;22.50;99.80;;;23.25;94.60;101309.03;5206116;28;20113;-58
2022/10/28 10:23:32;;;;;;;7.75;2.65;;;22.60;99.70;;;23.30;94.06;101301.88;5206286;28;20049;-59
2022/10/28 10:26:08;;;;;;;9.52;2.28;;;22.70;99.40;;;23.31;93.71;101303.63;5206317;28;20056;-59
2022/10/28 10:28:45;;;;;;;9.43;2.80;;;22.70;99.20;;;23.37;93.03;101290.28;5206361;28;20383;-59
2022/10/28 10:31:21;;;;;;;9.07;2.50;;;22.70;98.90;;;23.33;92.78;101288.53;5205073;28;20037;-59
2022/10/28 10:33:56;;;;;;;6.47;2.40;;;22.70;98.80;;;23.27;92.75;101291.25;5206048;28;20056;-59
2022/10/28 10:36:30;;;;;;;8.18;2.65;;;22.70;98.80;;;23.21;93.40;101297.53;5206370;28;20045;-59
2022/10/28 10:39:02;;;;;;;;;;;22.70;99.10;;;23.22;93.84;101293.09;5207168;28;20075;-59
2022/10/28 10:41:37;;;;;;;5.72;2.35;;;22.70;99.00;;;23.32;93.57;101289.44;5237892;23;19924;-77
2022/10/28 10:44:32;;;;;;;5.47;2.60;;;22.70;98.90;;;23.36;93.24;101291.19;5209859;28;20038;-86